Time;durP1;ratioP1;P1;durP2;ratioP2;P2;SDS_P1;SDS_P2;PMS_P1;PMS_P2;Temp;Humidity;BMP_temperature;BMP_pressure;BME280_temperature;BME280_humidity;BME280_pressure;Samples;Min_cycle;Max_cycle;Signal;HPM_P1;HPM_P2
2021/12/07 00:00:14;;;;;;;4.80;2.08;;;-4.40;99.90;;;-4.95;95.17;97276.84;172321;28;1403;-76
2021/12/07 00:00:23;;;;;;;4.43;2.16;;;-4.40;99.90;;;-4.92;95.33;97279.25;172179;28;1635;-76
2021/12/07 00:00:30;;;;;;;4.10;2.57;;;-4.30;99.90;;;-4.98;95.35;97271.81;173195;28;1458;-76
2021/12/07 00:00:37;;;;;;;4.28;2.68;;;-4.40;99.90;;;-5.03;95.64;97250.25;173092;28;1545;-76
2021/12/07 00:00:44;;;;;;;4.80;2.67;;;-4.30;99.90;;;-5.07;95.43;97240.03;172414;28;1363;-76
2021/12/07 00:00:52;;;;;;;4.60;3.13;;;-4.30;99.90;;;-4.90;95.27;97268.66;173067;28;1630;-75
2021/12/07 00:00:58;;;;;;;4.58;3.00;;;-4.30;99.90;;;-4.90;95.49;97272.13;173793;28;1443;-75
2021/12/07 00:01:05;;;;;;;4.57;2.57;;;-4.30;99.90;;;-4.85;95.65;97279.72;173214;28;860;-76
2021/12/07 00:01:11;;;;;;;4.03;2.47;;;-4.30;99.90;;;-4.92;95.43;97268.75;173903;28;943;-76
2021/12/07 00:01:17;;;;;;;4.07;2.40;;;-4.30;99.90;;;-4.97;95.28;97256.88;173802;28;1637;-76
2021/12/07 00:01:24;;;;;;;4.28;2.08;;;-4.30;99.90;;;-4.92;95.67;97260.06;173812;28;1327;-76
2021/12/07 00:01:32;;;;;;;4.20;2.07;;;-4.30;99.90;;;-4.86;95.58;97278.88;172554;28;864;-75
2021/12/07 00:01:39;;;;;;;4.14;2.22;;;-4.30;99.90;;;-4.96;95.47;97256.78;173979;28;1432;-76
2021/12/07 00:01:46;;;;;;;4.08;2.14;;;-4.30;99.90;;;-4.88;95.57;97269.44;172411;28;1495;-75
2021/12/07 00:01:52;;;;;;;4.26;2.06;;;-4.30;99.90;;;-5.06;95.77;97236.47;171034;28;1418;-76
2021/12/07 00:02:00;;;;;;;3.67;2.05;;;-4.30;99.90;;;-4.96;95.65;97258.56;172466;28;1347;-76
2021/12/07 00:02:10;;;;;;;4.30;2.04;;;-4.20;99.90;;;-4.94;95.76;97254.91;173841;28;1508;-76
2021/12/07 00:02:16;;;;;;;5.30;2.10;;;-4.30;99.90;;;-4.81;95.94;97278.56;174530;28;1428;-76
2021/12/07 00:02:23;;;;;;;6.45;2.40;;;-4.20;99.90;;;-4.93;95.96;97256.59;173824;28;1424;-76
2021/12/07 00:02:29;;;;;;;7.00;2.73;;;-4.20;99.90;;;-4.85;95.70;97275.31;173842;28;947;-76
2021/12/07 00:02:34;;;;;;;6.25;2.63;;;-4.20;99.90;;;-4.84;95.66;97270.91;172529;28;804;-76
2021/12/07 00:02:41;;;;;;;5.85;2.47;;;-4.20;99.90;;;-4.87;95.72;97268.50;171719;28;1415;-76
2021/12/07 00:02:47;;;;;;;4.40;2.30;;;-4.20;99.90;;;-4.93;95.42;97261.84;173153;28;1493;-76
2021/12/07 00:02:54;;;;;;;2.60;2.00;;;-4.20;99.90;;;-4.92;95.55;97254.81;173928;28;910;-76
2021/12/07 00:03:00;;;;;;;1.93;1.70;;;-4.20;99.90;;;-4.80;95.81;97278.50;173756;28;1641;-76
2021/12/07 00:03:06;;;;;;;2.30;1.80;;;-4.20;99.90;;;-4.87;95.91;97268.50;173835;28;1752;-76
2021/12/07 00:03:12;;;;;;;3.22;1.98;;;-4.20;99.90;;;-4.90;95.70;97264.28;173696;28;1495;-76
2021/12/07 00:03:20;;;;;;;3.27;2.13;;;-4.20;99.90;;;-4.90;95.34;97264.28;172653;28;1401;-76
2021/12/07 00:03:26;;;;;;;3.42;2.13;;;-4.20;99.90;;;-5.01;95.45;97250.13;173063;28;1374;-76
2021/12/07 00:03:32;;;;;;;3.50;2.10;;;-4.30;99.90;;;-5.17;95.51;97224.88;173097;28;1696;-76
2021/12/07 00:03:38;;;;;;;2.75;2.03;;;-4.30;99.90;;;-4.94;95.73;97264.56;173235;28;942;-76
2021/12/07 00:03:45;;;;;;;2.38;1.90;;;-4.30;99.90;;;-4.88;95.28;97272.91;173135;28;1459;-76
2021/12/07 00:03:52;;;;;;;2.95;2.00;;;-4.30;99.90;;;-4.93;95.40;97263.63;172463;28;1261;-76
2021/12/07 00:03:58;;;;;;;2.97;2.13;;;-4.20;99.90;;;-5.04;95.85;97248.56;171110;28;1425;-76
2021/12/07 00:04:05;;;;;;;2.85;2.10;;;-4.30;99.90;;;-4.97;95.34;97267.38;173171;28;1962;-76
2021/12/07 00:04:11;;;;;;;3.33;2.28;;;-4.30;99.90;;;-4.99;95.21;97262.22;175100;28;1451;-76
2021/12/07 00:04:18;;;;;;;3.40;2.30;;;-4.30;99.90;;;-4.95;95.27;97276.00;172497;28;1394;-76
2021/12/07 00:04:27;;;;;;;3.63;2.17;;;-4.30;99.90;;;-5.06;94.96;97255.69;171907;28;935;-76
2021/12/07 00:04:34;;;;;;;3.86;2.36;;;-4.30;99.90;;;-4.95;95.27;97274.22;171236;28;1031;-76
2021/12/07 00:04:40;;;;;;;4.07;2.43;;;-4.30;99.90;;;-5.08;95.23;97254.94;171768;28;1251;-76
2021/12/07 00:04:47;;;;;;;3.72;2.45;;;-4.30;99.90;;;-5.01;95.17;97268.50;172417;28;1288;-76
2021/12/07 00:04:53;;;;;;;3.93;2.83;;;-4.40;99.90;;;-5.10;94.96;97253.34;173233;28;1283;-76
2021/12/07 00:04:59;;;;;;;4.80;2.83;;;-4.40;99.90;;;-4.99;95.25;97274.50;172150;28;1200;-76
2021/12/07 00:05:06;;;;;;;4.65;2.95;;;-4.40;99.90;;;-5.09;95.20;97258.50;171949;28;982;-76
2021/12/07 00:05:13;;;;;;;5.44;2.82;;;-4.40;99.90;;;-5.01;95.63;97265.88;171708;28;1329;-76
2021/12/07 00:05:19;;;;;;;5.83;2.80;;;-4.40;99.90;;;-5.02;95.43;97272.06;173947;28;981;-76
2021/12/07 00:05:25;;;;;;;5.00;2.40;;;-4.40;99.90;;;-5.13;95.51;97253.56;172914;28;1539;-76
2021/12/07 00:05:32;;;;;;;5.43;2.60;;;-4.40;99.90;;;-5.17;95.23;97247.63;172399;28;1398;-76
2021/12/07 00:05:38;;;;;;;5.00;2.50;;;-4.40;99.90;;;-5.00;95.34;97281.53;173804;28;1526;-76
2021/12/07 00:05:44;;;;;;;7.27;3.00;;;-4.40;99.90;;;-5.03;95.38;97268.63;173343;28;1349;-76
2021/12/07 00:05:50;;;;;;;7.43;2.90;;;-4.40;99.90;;;-5.09;95.56;97263.75;173030;28;1467;-76
2021/12/07 00:05:57;;;;;;;7.50;2.90;;;-4.40;99.90;;;-5.07;95.43;97258.38;173793;28;1557;-76
2021/12/07 00:06:04;;;;;;;7.57;2.70;;;-4.40;99.90;;;-5.03;95.33;97265.16;173230;28;1329;-76
2021/12/07 00:06:11;;;;;;;7.40;2.80;;;-4.40;99.90;;;-5.01;95.51;97271.97;173916;28;1408;-76
2021/12/07 00:06:18;;;;;;;5.28;2.66;;;-4.40;99.90;;;-5.02;95.12;97265.03;174503;28;1333;-76
2021/12/07 00:06:25;;;;;;;7.10;2.70;;;-4.40;99.90;;;-5.07;95.67;97263.63;173125;28;1306;-76
2021/12/07 00:06:31;;;;;;;6.56;2.50;;;-4.40;99.90;;;-4.99;95.52;97280.59;171850;28;971;-76
2021/12/07 00:06:39;;;;;;;6.14;2.42;;;-4.40;99.90;;;-5.22;95.32;97237.44;173170;28;1389;-76
2021/12/07 00:06:45;;;;;;;5.67;2.13;;;-4.40;99.90;;;-5.07;95.03;97255.75;173277;28;1006;-76
2021/12/07 00:06:51;;;;;;;5.00;2.10;;;-4.40;99.90;;;-5.11;95.32;97259.53;173112;28;1424;-76
2021/12/07 00:06:58;;;;;;;3.20;2.20;;;-4.40;99.90;;;-5.04;95.43;97260.84;172345;28;1509;-76
2021/12/07 00:07:05;;;;;;;3.38;2.26;;;-4.40;99.90;;;-5.02;95.33;97272.06;173824;28;1388;-76
2021/12/07 00:07:11;;;;;;;3.78;2.16;;;-4.40;99.90;;;-5.08;95.26;97261.97;173042;28;1464;-76
2021/12/07 00:07:17;;;;;;;5.00;2.15;;;-4.40;99.90;;;-5.01;95.41;97263.25;172450;28;1223;-75
2021/12/07 00:07:24;;;;;;;5.27;2.20;;;-4.40;99.90;;;-5.13;95.29;97247.34;173398;28;1342;-75
2021/12/07 00:07:30;;;;;;;5.87;2.27;;;-4.40;99.90;;;-5.13;95.22;97247.34;172585;28;943;-76
2021/12/07 00:07:39;;;;;;;6.00;2.18;;;-4.40;99.90;;;-4.97;95.23;97262.13;173750;28;1366;-76
2021/12/07 00:07:45;;;;;;;6.60;2.25;;;-4.40;99.90;;;-5.01;95.20;97260.63;174437;28;1569;-76
2021/12/07 00:07:51;;;;;;;7.50;2.20;;;-4.30;99.90;;;-5.08;95.23;97248.84;173777;28;1412;-76
2021/12/07 00:07:57;;;;;;;7.38;2.15;;;-4.40;99.90;;;-4.95;95.11;97265.50;173874;28;958;-75
2021/12/07 00:08:04;;;;;;;6.82;2.00;;;-4.40;99.90;;;-5.09;95.53;97245.38;174562;28;800;-76
2021/12/07 00:08:10;;;;;;;4.90;2.00;;;-4.30;99.90;;;-5.26;95.39;97208.88;173755;28;1303;-75
2021/12/07 00:08:16;;;;;;;3.72;1.95;;;-4.30;99.90;;;-4.94;95.58;97267.19;173220;28;1026;-78
2021/12/07 00:08:22;;;;;;;3.36;1.86;;;-4.30;99.90;;;-4.95;95.36;97260.25;173084;28;1588;-76
2021/12/07 00:08:29;;;;;;;3.38;1.88;;;-4.30;99.90;;;-5.00;95.11;97246.56;173794;28;1593;-76
2021/12/07 00:08:37;;;;;;;2.90;1.90;;;-4.30;99.90;;;-4.96;95.21;97259.41;171841;28;913;-76
2021/12/07 00:08:44;;;;;;;2.78;1.85;;;-4.30;99.90;;;-5.06;95.33;97244.34;173263;28;1138;-76
2021/12/07 00:08:54;;;;;;;3.16;2.02;;;-4.30;99.90;;;-5.08;95.05;97236.59;174383;28;1495;-76
2021/12/07 00:09:00;;;;;;;3.64;2.05;;;-4.30;99.90;;;-5.15;94.98;97227.41;174492;28;1441;-76
2021/12/07 00:09:13;;;;;;;4.48;2.22;;;-4.30;99.90;;;-5.04;95.28;97239.84;173718;28;1357;-76
2021/12/07 00:09:19;;;;;;;4.55;2.30;;;-4.30;99.90;;;-5.00;95.50;97250.03;173880;28;1213;-76
2021/12/07 00:09:25;;;;;;;3.74;2.44;;;-4.30;99.90;;;-4.88;95.31;97272.91;173096;28;1469;-76
2021/12/07 00:09:31;;;;;;;4.45;2.65;;;-4.30;99.90;;;-5.01;95.73;97244.88;173775;28;1630;-76
2021/12/07 00:09:38;;;;;;;4.33;2.63;;;-4.30;99.90;;;-4.93;95.60;97261.84;172394;28;1710;-76
2021/12/07 00:09:49;;;;;;;6.80;2.60;;;-4.30;99.90;;;-4.95;95.36;97255.00;173284;28;898;-76
2021/12/07 00:09:55;;;;;;;6.74;2.51;;;-4.30;99.90;;;-4.94;95.41;97251.44;173161;28;1211;-76
2021/12/07 00:10:02;;;;;;;5.57;2.17;;;-4.30;99.90;;;-4.98;95.26;97245.56;173202;28;1306;-76
2021/12/07 00:10:09;;;;;;;6.70;2.13;;;-4.30;99.90;;;-4.96;95.73;97245.44;172949;28;1502;-76
2021/12/07 00:10:16;;;;;;;4.92;2.04;;;-4.30;99.90;;;-4.86;95.52;97268.38;173504;28;1437;-76
2021/12/07 00:10:22;;;;;;;4.92;2.02;;;-4.30;99.90;;;-5.00;95.78;97242.16;173282;28;916;-76
2021/12/07 00:10:28;;;;;;;5.45;2.10;;;-4.20;99.90;;;-4.87;95.60;97258.00;173774;28;1277;-76
2021/12/07 00:10:38;;;;;;;4.53;1.93;;;-4.30;99.90;;;-4.88;95.92;97261.56;174602;28;1078;-76
2021/12/07 00:10:44;;;;;;;2.80;2.03;;;-4.30;99.90;;;-4.96;95.84;97242.81;171744;28;1311;-76
2021/12/07 00:10:51;;;;;;;3.46;1.98;;;-4.20;99.90;;;-4.86;95.47;97267.53;173985;28;1484;-76
2021/12/07 00:10:57;;;;;;;3.23;1.90;;;-4.30;99.90;;;-4.98;95.63;97239.47;172357;28;1399;-76
2021/12/07 00:11:03;;;;;;;3.42;1.88;;;-4.30;99.90;;;-4.95;95.39;97244.50;171850;28;872;-76
2021/12/07 00:11:11;;;;;;;3.75;1.85;;;-4.30;99.90;;;-4.97;95.35;97244.59;171873;28;867;-76
2021/12/07 00:11:17;;;;;;;3.70;2.07;;;-4.30;99.90;;;-4.94;95.23;97257.53;172404;28;1422;-75
2021/12/07 00:11:29;;;;;;;4.13;2.45;;;-4.30;99.90;;;-4.96;95.75;97254.16;173191;28;919;-75
2021/12/07 00:11:36;;;;;;;3.96;2.53;;;-4.30;99.90;;;-5.00;95.37;97246.56;173097;28;1350;-75
2021/12/07 00:11:46;;;;;;;4.10;2.72;;;-4.30;99.90;;;-4.91;95.63;97266.97;173137;28;1448;-75
2021/12/07 00:11:53;;;;;;;4.38;2.69;;;-4.30;99.90;;;-4.92;95.51;97260.06;172231;28;1958;-76
2021/12/07 00:12:03;;;;;;;4.25;2.72;;;-4.30;99.90;;;-4.93;95.51;97266.25;172572;28;942;-76
2021/12/07 00:12:10;;;;;;;5.48;2.53;;;-4.30;99.90;;;-5.05;95.24;97239.00;173163;28;1510;-76
2021/12/07 00:12:17;;;;;;;6.10;2.80;;;-4.30;99.90;;;-4.97;95.39;97249.00;173217;28;863;-76
2021/12/07 00:12:23;;;;;;;5.63;2.57;;;-4.30;99.90;;;-5.00;95.26;97243.94;173183;28;1034;-76
2021/12/07 00:12:34;;;;;;;6.18;2.83;;;-4.30;99.90;;;-5.00;95.23;97247.41;171845;28;1670;-76
2021/12/07 00:12:44;;;;;;;5.57;3.01;;;-4.30;99.90;;;-4.96;95.53;97261.19;174127;28;1695;-76
2021/12/07 00:12:50;;;;;;;4.63;2.70;;;-4.30;99.90;;;-4.99;95.67;97248.25;173838;28;1508;-76
2021/12/07 00:12:57;;;;;;;3.97;2.40;;;-4.30;99.90;;;-5.04;95.34;97239.84;173133;28;887;-76
2021/12/07 00:13:04;;;;;;;3.50;2.43;;;-4.30;99.90;;;-5.03;95.18;97238.91;173210;28;1320;-76
2021/12/07 00:13:11;;;;;;;3.10;2.30;;;-4.30;99.90;;;-5.00;95.22;97252.66;173210;28;864;-76
2021/12/07 00:13:18;;;;;;;3.53;2.60;;;-4.30;99.90;;;-4.92;95.51;97252.19;173166;28;1441;-76
2021/12/07 00:13:28;;;;;;;3.58;2.52;;;-4.30;99.90;;;-5.02;95.49;97244.03;173179;28;1423;-76
2021/12/07 00:13:38;;;;;;;3.33;2.47;;;-4.30;99.90;;;-4.98;95.22;97250.81;173254;28;956;-76
2021/12/07 00:13:44;;;;;;;3.41;2.40;;;-4.30;99.90;;;-4.96;95.48;97248.06;172460;28;1087;-76
2021/12/07 00:13:50;;;;;;;3.70;2.20;;;-4.30;99.90;;;-5.06;95.06;97231.22;172547;28;1235;-76
2021/12/07 00:13:58;;;;;;;3.97;2.23;;;-4.20;99.90;;;-4.96;95.32;97246.28;173537;28;1499;-76
2021/12/07 00:14:21;;;;;;;6.40;2.33;;;-4.30;99.90;;;-4.96;95.46;97245.44;174431;28;1511;-76
2021/12/07 00:14:34;;;;;;;6.18;2.28;;;-4.20;99.90;;;-4.94;95.39;97244.41;172412;28;1609;-76
2021/12/07 00:14:41;;;;;;;4.39;2.24;;;-4.20;99.90;;;-4.92;95.58;97244.31;172513;28;1220;-76
2021/12/07 00:14:47;;;;;;;3.92;2.12;;;-4.30;99.90;;;-4.95;95.66;97245.34;173798;28;1361;-76
2021/12/07 00:15:01;;;;;;;3.97;2.25;;;-4.30;99.90;;;-4.90;95.53;97248.50;173227;28;875;-76
2021/12/07 00:15:10;;;;;;;3.71;2.29;;;-4.20;99.90;;;-4.90;95.49;97240.66;173108;28;1356;-76
2021/12/07 00:15:20;;;;;;;3.13;2.40;;;-4.20;99.90;;;-4.85;95.72;97250.84;172418;28;1412;-76
2021/12/07 00:15:29;;;;;;;2.90;2.20;;;-4.20;99.90;;;-4.96;95.37;97235.78;172749;28;1748;-76
2021/12/07 00:15:38;;;;;;;3.60;2.37;;;-4.20;99.90;;;-4.84;95.73;97256.00;173782;28;1499;-76
2021/12/07 00:15:46;;;;;;;3.80;2.23;;;-4.20;99.90;;;-4.90;95.78;97238.03;174652;28;851;-76
2021/12/07 00:15:52;;;;;;;4.87;2.40;;;-4.20;99.90;;;-4.89;95.76;97239.72;174420;28;1575;-75
2021/12/07 00:15:58;;;;;;;5.93;2.63;;;-4.20;99.90;;;-4.87;95.94;97239.63;173152;28;1336;-76
2021/12/07 00:16:09;;;;;;;6.47;2.65;;;-4.20;99.90;;;-4.89;95.60;97244.97;173811;28;1231;-76
2021/12/07 00:16:15;;;;;;;6.94;2.66;;;-4.20;99.90;;;-4.94;95.75;97233.91;172472;28;1206;-76
2021/12/07 00:16:21;;;;;;;7.75;2.72;;;-4.20;99.90;;;-4.97;95.90;97226.22;173221;28;983;-76
2021/12/07 00:16:28;;;;;;;6.93;2.75;;;-4.20;99.90;;;-4.87;95.82;97247.50;173083;28;1542;-75
2021/12/07 00:16:34;;;;;;;6.15;2.85;;;-4.20;99.90;;;-5.17;96.16;97193.38;172376;28;1532;-76
2021/12/07 00:16:44;;;;;;;5.57;2.70;;;-4.20;99.90;;;-4.99;96.29;97225.50;173813;28;1322;-76
2021/12/07 00:16:54;;;;;;;3.89;2.66;;;-4.20;99.90;;;-5.10;95.91;97206.97;174394;28;1411;-76
2021/12/07 00:17:02;;;;;;;3.54;2.45;;;-4.20;99.90;;;-5.23;95.97;97191.16;174568;28;1134;-76
2021/12/07 00:17:08;;;;;;;5.00;2.54;;;-4.20;99.90;;;-4.91;95.68;97241.56;173251;28;1511;-76
2021/12/07 00:17:15;;;;;;;7.07;2.67;;;-4.20;99.90;;;-4.98;96.04;97234.22;172537;28;1352;-76
2021/12/07 00:17:20;;;;;;;7.68;2.88;;;-4.20;99.90;;;-4.93;95.86;97243.47;173291;28;1034;-76
2021/12/07 00:17:27;;;;;;;7.28;2.63;;;-4.20;99.90;;;-4.96;96.00;97241.03;171107;28;1286;-76
2021/12/07 00:17:35;;;;;;;6.67;2.83;;;-4.20;99.90;;;-5.07;95.75;97222.50;172468;28;1497;-76
2021/12/07 00:17:43;;;;;;;5.20;2.92;;;-4.20;99.90;;;-4.98;96.13;97234.22;172780;28;983;-76
2021/12/07 00:17:49;;;;;;;3.35;2.68;;;-4.20;99.90;;;-5.10;95.86;97212.22;173110;28;975;-76
2021/12/07 00:17:55;;;;;;;3.52;2.76;;;-4.20;99.90;;;-4.94;96.03;97240.94;171057;28;1405;-76
2021/12/07 00:18:01;;;;;;;3.47;2.73;;;-4.20;99.90;;;-5.05;95.87;97219.78;172481;28;1117;-76
2021/12/07 00:18:07;;;;;;;3.60;2.40;;;-4.20;99.90;;;-5.00;95.99;97223.81;173490;28;1452;-76
2021/12/07 00:18:13;;;;;;;3.83;2.50;;;-4.20;99.90;;;-4.96;95.91;97240.19;173190;28;998;-76
2021/12/07 00:18:19;;;;;;;5.10;2.63;;;-4.20;99.90;;;-4.89;95.86;97255.47;172375;28;1308;-76
2021/12/07 00:18:25;;;;;;;4.88;2.63;;;-4.20;99.90;;;-4.92;95.92;97241.69;173149;28;1277;-76
2021/12/07 00:18:31;;;;;;;4.55;2.42;;;-4.20;99.90;;;-4.93;95.77;97242.63;173786;28;1454;-76
2021/12/07 00:18:38;;;;;;;4.55;2.53;;;-4.20;99.90;;;-5.26;95.65;97187.88;173813;28;1362;-76
2021/12/07 00:18:45;;;;;;;3.96;2.38;;;-4.20;99.90;;;-4.92;95.73;97242.50;173247;28;1025;-76
2021/12/07 00:18:51;;;;;;;4.00;2.43;;;-4.20;99.90;;;-5.05;96.12;97222.41;173252;28;998;-76
2021/12/07 00:18:57;;;;;;;5.13;2.60;;;-4.20;99.90;;;-5.02;95.87;97225.66;174562;28;1096;-76
2021/12/07 00:19:04;;;;;;;6.03;2.87;;;-4.20;99.90;;;-4.96;96.08;97230.53;173874;28;1310;-76
2021/12/07 00:19:12;;;;;;;6.38;3.14;;;-4.20;99.90;;;-4.85;96.07;97240.34;174365;28;1478;-76
2021/12/07 00:19:18;;;;;;;6.10;3.10;;;-4.20;99.90;;;-4.91;96.14;97231.06;173217;28;1100;-76
2021/12/07 00:19:24;;;;;;;5.03;3.00;;;-4.20;99.90;;;-4.95;96.03;97232.22;172547;28;1038;-76
2021/12/07 00:19:31;;;;;;;4.40;2.93;;;-4.20;99.90;;;-4.87;96.34;97242.25;172472;28;1510;-76
2021/12/07 00:19:37;;;;;;;3.17;2.47;;;-4.20;99.90;;;-4.84;95.86;97250.75;172670;28;1599;-76
2021/12/07 00:19:43;;;;;;;3.34;2.60;;;-4.20;99.90;;;-4.92;96.03;97233.81;172611;28;911;-76
2021/12/07 00:19:49;;;;;;;3.08;2.70;;;-4.20;99.90;;;-5.03;96.17;97216.13;171904;28;1228;-76
2021/12/07 00:19:56;;;;;;;3.50;2.57;;;-4.20;99.90;;;-4.90;96.09;97231.91;172617;28;1400;-76
2021/12/07 00:20:12;;;;;;;3.72;2.72;;;-4.20;99.90;;;-4.89;96.29;97250.22;172623;28;967;-75
2021/12/07 00:20:21;;;;;;;3.99;2.67;;;-4.20;99.90;;;-4.99;96.55;97229.91;172423;28;1704;-76
2021/12/07 00:20:28;;;;;;;3.69;2.56;;;-4.20;99.90;;;-4.94;96.12;97235.69;172510;28;1606;-75
2021/12/07 00:20:35;;;;;;;5.74;2.70;;;-4.20;99.90;;;-4.92;96.34;97234.63;174299;28;1665;-75
2021/12/07 00:20:41;;;;;;;6.20;2.70;;;-4.20;99.90;;;-4.91;96.02;97240.72;174521;28;1373;-75
2021/12/07 00:20:47;;;;;;;6.87;2.80;;;-4.20;99.90;;;-4.88;96.50;97251.91;174663;28;808;-75
2021/12/07 00:20:53;;;;;;;11.55;3.17;;;-4.20;99.90;;;-4.95;96.55;97234.84;175193;28;1455;-75
2021/12/07 00:21:00;;;;;;;10.93;3.00;;;-4.20;99.90;;;-5.04;96.30;97221.47;173314;28;1709;-75
2021/12/07 00:21:08;;;;;;;9.33;2.73;;;-4.20;99.90;;;-4.96;96.39;97238.41;174669;28;1021;-75
2021/12/07 00:21:17;;;;;;;9.78;2.98;;;-4.20;99.90;;;-5.06;96.16;97221.56;173172;28;1428;-75
2021/12/07 00:21:23;;;;;;;5.03;2.77;;;-4.20;99.90;;;-4.97;96.17;97233.25;173931;28;946;-75
2021/12/07 00:21:29;;;;;;;5.05;2.70;;;-4.20;99.90;;;-5.11;96.56;97213.13;173262;28;926;-75
2021/12/07 00:21:36;;;;;;;5.57;2.80;;;-4.20;99.90;;;-5.01;96.56;97227.34;172787;28;1582;-75
2021/12/07 00:21:44;;;;;;;5.13;2.53;;;-4.20;99.90;;;-4.99;96.16;97232.53;174008;28;1121;-76
2021/12/07 00:21:51;;;;;;;4.87;2.43;;;-4.20;99.90;;;-4.99;96.62;97230.75;173930;28;860;-76
2021/12/07 00:21:58;;;;;;;5.20;2.40;;;-4.20;99.90;;;-5.02;96.40;97219.56;174500;28;1423;-76
2021/12/07 00:22:09;;;;;;;4.60;2.60;;;-4.20;99.90;;;-5.15;96.68;97207.25;174616;28;1128;-76
2021/12/07 00:22:15;;;;;;;4.24;2.70;;;-4.30;99.90;;;-4.96;96.32;97242.81;173111;28;1212;-75
2021/12/07 00:22:22;;;;;;;4.18;2.75;;;-4.20;99.90;;;-4.94;96.16;97247.03;173192;28;1192;-75
2021/12/07 00:22:28;;;;;;;4.02;2.60;;;-4.30;99.90;;;-4.96;96.42;97238.41;173189;28;1041;-75
2021/12/07 00:22:35;;;;;;;3.90;2.55;;;-4.30;99.90;;;-4.99;96.60;97238.63;172814;28;1314;-75
2021/12/07 00:22:50;;;;;;;5.23;2.67;;;-4.30;99.90;;;-5.17;96.55;97208.28;173157;28;1301;-75
2021/12/07 00:23:03;;;;;;;5.49;2.60;;;-4.30;99.90;;;-4.96;96.36;97248.91;173187;28;1177;-75
2021/12/07 00:23:10;;;;;;;5.19;2.51;;;-4.30;99.90;;;-4.98;96.47;97239.47;173255;28;1227;-75
2021/12/07 00:23:16;;;;;;;4.57;2.37;;;-4.30;99.90;;;-4.98;96.53;97234.22;172510;28;920;-75
2021/12/07 00:23:22;;;;;;;4.16;2.16;;;-4.30;99.90;;;-5.03;96.62;97236.28;171784;28;955;-76
2021/12/07 00:23:29;;;;;;;4.17;2.17;;;-4.30;99.90;;;-5.03;96.34;97237.13;172308;28;1453;-75
2021/12/07 00:23:36;;;;;;;3.63;2.20;;;-4.30;99.90;;;-5.08;96.59;97227.88;172441;28;1421;-75
2021/12/07 00:23:43;;;;;;;3.87;2.50;;;-4.30;99.90;;;-5.06;96.37;97225.97;173262;28;967;-76
2021/12/07 00:23:50;;;;;;;3.40;2.40;;;-4.30;99.90;;;-5.02;96.28;97232.69;171780;28;1693;-76
2021/12/07 00:23:56;;;;;;;3.56;2.48;;;-4.30;99.90;;;-4.98;96.57;97245.56;171753;28;1446;-76
2021/12/07 00:24:03;;;;;;;3.90;2.66;;;-4.30;99.90;;;-4.96;96.54;97246.28;171857;28;1038;-76
2021/12/07 00:24:12;;;;;;;4.70;2.73;;;-4.30;99.90;;;-5.07;96.54;97227.75;171882;28;848;-75
2021/12/07 00:24:18;;;;;;;4.90;2.80;;;-4.30;99.90;;;-5.08;96.49;97220.00;171487;28;1260;-75
2021/12/07 00:24:25;;;;;;;4.90;2.83;;;-4.30;99.90;;;-5.02;96.41;97238.78;172457;28;1284;-76
2021/12/07 00:24:30;;;;;;;11.40;2.83;;;-4.30;99.90;;;-4.98;96.68;97239.47;173169;28;1327;-76
2021/12/07 00:24:37;;;;;;;10.77;2.67;;;-4.30;99.90;;;-5.02;96.40;97228.28;172788;28;1340;-76
2021/12/07 00:24:42;;;;;;;12.07;2.80;;;-4.30;99.90;;;-5.02;96.54;97225.66;171790;28;1371;-76
2021/12/07 00:24:48;;;;;;;12.02;2.90;;;-4.30;99.90;;;-4.98;96.18;97236.84;172508;28;998;-76
2021/12/07 00:24:54;;;;;;;11.87;3.03;;;-4.30;99.90;;;-4.97;96.68;97243.75;172494;28;1481;-76
2021/12/07 00:25:00;;;;;;;6.07;2.97;;;-4.30;99.90;;;-5.03;96.61;97231.03;173887;28;977;-76
2021/12/07 00:25:09;;;;;;;6.63;3.15;;;-4.30;99.90;;;-5.01;96.29;97239.63;172885;28;1707;-75
2021/12/07 00:25:16;;;;;;;4.73;2.94;;;-4.30;99.90;;;-5.02;96.43;97232.69;173169;28;1013;-75
2021/12/07 00:25:23;;;;;;;4.80;2.80;;;-4.30;99.90;;;-5.13;96.15;97214.19;173490;28;1398;-75
2021/12/07 00:25:29;;;;;;;4.52;2.78;;;-4.30;99.90;;;-4.98;96.49;97239.47;173971;28;891;-76
2021/12/07 00:25:36;;;;;;;3.83;2.80;;;-4.30;99.90;;;-5.06;95.91;97228.59;172422;28;1466;-76
2021/12/07 00:25:42;;;;;;;3.58;2.70;;;-4.30;99.90;;;-5.01;95.91;97247.50;171733;28;1442;-76
2021/12/07 00:25:48;;;;;;;4.00;2.60;;;-4.40;99.90;;;-5.13;96.00;97231.59;171759;28;1268;-75
2021/12/07 00:25:54;;;;;;;4.10;2.70;;;-4.40;99.90;;;-5.13;96.10;97228.97;171814;28;1298;-76
2021/12/07 00:26:00;;;;;;;4.28;2.58;;;-4.40;99.90;;;-5.16;96.09;97223.94;173046;28;1466;-76
2021/12/07 00:26:06;;;;;;;4.64;2.56;;;-4.40;99.90;;;-5.06;96.42;97241.72;175164;28;1473;-76
2021/12/07 00:26:15;;;;;;;4.80;2.70;;;-4.40;99.90;;;-5.05;96.26;97254.75;173199;28;930;-75
2021/12/07 00:26:21;;;;;;;4.80;2.53;;;-4.40;99.90;;;-5.11;96.36;97239.38;172270;28;1426;-75
2021/12/07 00:26:27;;;;;;;4.88;2.50;;;-4.40;99.90;;;-5.34;95.88;97196.25;171682;28;1282;-75
2021/12/07 00:26:33;;;;;;;4.18;2.38;;;-4.40;99.90;;;-5.23;96.23;97213.91;172372;28;1454;-75
2021/12/07 00:26:42;;;;;;;4.38;2.45;;;-4.40;99.90;;;-5.24;96.41;97215.72;173057;28;1796;-75
2021/12/07 00:26:48;;;;;;;3.80;2.57;;;-4.40;99.90;;;-5.30;96.33;97205.59;173844;28;1112;-75
2021/12/07 00:26:55;;;;;;;3.77;2.67;;;-4.40;99.90;;;-5.16;96.21;97226.56;173780;28;1270;-76
2021/12/07 00:27:01;;;;;;;3.90;2.60;;;-4.40;99.90;;;-5.15;96.12;97238.75;172519;28;864;-76
2021/12/07 00:27:07;;;;;;;4.07;2.57;;;-4.40;99.90;;;-5.18;96.22;97227.59;171802;28;1030;-76
2021/12/07 00:27:13;;;;;;;4.25;2.63;;;-4.40;99.90;;;-5.19;96.16;97226.75;173794;28;1333;-76
2021/12/07 00:27:19;;;;;;;4.70;2.60;;;-4.40;99.90;;;-5.20;96.38;97219.81;173997;28;1393;-76
2021/12/07 00:27:25;;;;;;;5.10;2.74;;;-4.40;99.90;;;-5.08;96.17;97233.13;172974;28;1522;-76
2021/12/07 00:27:31;;;;;;;6.83;3.00;;;-4.40;99.90;;;-5.13;96.51;97231.59;172433;28;1467;-76
2021/12/07 00:27:37;;;;;;;7.03;3.03;;;-4.40;99.90;;;-5.15;96.09;97228.25;173441;28;1581;-76
2021/12/07 00:27:43;;;;;;;6.83;2.70;;;-4.50;99.90;;;-5.18;96.01;97217.13;173861;28;1561;-76
2021/12/07 00:27:51;;;;;;;6.55;2.70;;;-4.40;99.90;;;-5.13;96.34;97223.72;173111;28;1077;-76
2021/12/07 00:27:57;;;;;;;6.66;2.80;;;-4.40;99.90;;;-5.15;96.47;97223.00;173000;28;1489;-75
2021/12/07 00:28:04;;;;;;;4.65;2.58;;;-4.50;99.90;;;-5.07;96.14;97233.00;175247;28;1336;-75
2021/12/07 00:28:11;;;;;;;4.30;2.63;;;-4.40;99.90;;;-5.11;96.78;97223.63;175182;28;1317;-75
2021/12/07 00:28:20;;;;;;;4.15;2.70;;;-4.40;99.90;;;-5.13;96.85;97219.44;175163;28;962;-75
2021/12/07 00:28:26;;;;;;;3.63;2.80;;;-4.40;99.90;;;-5.16;96.72;97218.69;173547;28;1223;-75
2021/12/07 00:28:33;;;;;;;3.57;2.77;;;-4.40;99.90;;;-5.07;96.51;97229.53;173228;28;947;-76
2021/12/07 00:28:41;;;;;;;3.65;2.80;;;-4.40;99.90;;;-5.25;96.44;97208.78;173435;28;1657;-76
2021/12/07 00:28:50;;;;;;;3.61;2.83;;;-4.40;99.90;;;-5.13;96.67;97226.34;173143;28;1032;-76
2021/12/07 00:28:58;;;;;;;3.44;2.61;;;-4.50;99.90;;;-5.08;96.04;97233.13;173707;28;1346;-76
2021/12/07 00:29:06;;;;;;;4.42;2.67;;;-4.40;99.90;;;-5.07;96.36;97232.16;172770;28;1377;-76
2021/12/07 00:29:16;;;;;;;4.62;2.70;;;-4.40;99.90;;;-5.10;96.28;97235.81;172991;28;1627;-76
2021/12/07 00:29:22;;;;;;;4.60;2.65;;;-4.40;99.90;;;-5.16;96.53;97220.47;172514;28;1461;-76
2021/12/07 00:29:30;;;;;;;4.68;2.60;;;-4.40;99.90;;;-5.30;96.49;97194.28;173769;28;867;-76
2021/12/07 00:29:36;;;;;;;4.43;2.73;;;-4.50;99.90;;;-5.18;96.37;97219.75;173282;28;1339;-76
2021/12/07 00:29:42;;;;;;;3.90;2.60;;;-4.50;99.90;;;-5.31;95.95;97197.81;172721;28;1619;-76
2021/12/07 00:29:48;;;;;;;3.77;2.50;;;-4.50;99.90;;;-5.15;96.43;97230.03;174484;28;1254;-76
2021/12/07 00:29:55;;;;;;;4.38;2.67;;;-4.50;99.90;;;-5.29;96.46;97198.59;174560;28;981;-76
2021/12/07 00:30:05;;;;;;;4.73;2.70;;;-4.50;99.90;;;-5.27;96.42;97201.94;173845;28;860;-76
2021/12/07 00:30:13;;;;;;;4.78;2.75;;;-4.50;99.90;;;-5.15;96.24;97227.41;171736;28;1281;-76
2021/12/07 00:30:20;;;;;;;5.23;3.00;;;-4.50;99.90;;;-5.19;96.24;97211.03;171888;28;950;-76
2021/12/07 00:30:30;;;;;;;4.47;2.83;;;-4.50;99.90;;;-5.19;96.03;97216.28;172853;28;1457;-76
2021/12/07 00:30:37;;;;;;;4.05;2.60;;;-4.50;99.90;;;-5.24;96.11;97213.09;173246;28;1313;-75
2021/12/07 00:30:43;;;;;;;4.06;2.32;;;-4.50;99.90;;;-5.23;96.31;97222.63;172667;28;1755;-76
2021/12/07 00:30:51;;;;;;;3.90;2.30;;;-4.50;99.90;;;-5.50;96.48;97171.94;173209;28;899;-76
2021/12/07 00:31:07;;;;;;;4.17;2.60;;;-4.50;99.90;;;-5.23;96.06;97214.75;171654;28;1299;-76
2021/12/07 00:31:25;;;;;;;4.76;2.86;;;-4.50;99.90;;;-5.11;95.89;97230.66;172594;28;1230;-76
2021/12/07 00:31:40;;;;;;;5.29;2.74;;;-4.50;99.90;;;-5.23;96.21;97224.41;174214;28;2786;-76